sensor_id;sensor_type;location;lat;lon;timestamp;pressure;altitude;pressure_sealevel;temperature;humidity
9839;BME280;4958;48.150;11.506;2023-02-12T00:00:57;97435.91;;;6.14;62.12
9839;BME280;4958;48.150;11.506;2023-02-12T00:03:23;97429.16;;;6.13;62.35
9839;BME280;4958;48.150;11.506;2023-02-12T00:05:51;97435.78;;;6.16;61.93
9839;BME280;4958;48.150;11.506;2023-02-12T00:08:17;97432.19;;;6.18;62.26
9839;BME280;4958;48.150;11.506;2023-02-12T00:10:44;97434.16;;;6.15;62.45
9839;BME280;4958;48.150;11.506;2023-02-12T00:13:11;97434.75;;;6.18;61.72
9839;BME280;4958;48.150;11.506;2023-02-12T00:15:39;97436.28;;;6.21;62.29
9839;BME280;4958;48.150;11.506;2023-02-12T00:18:05;97430.25;;;6.22;62.01
9839;BME280;4958;48.150;11.506;2023-02-12T00:20:32;97427.69;;;6.22;62.06
9839;BME280;4958;48.150;11.506;2023-02-12T00:23:00;97427.69;;;6.22;62.00
9839;BME280;4958;48.150;11.506;2023-02-12T00:25:26;97431.47;;;6.16;62.46
9839;BME280;4958;48.150;11.506;2023-02-12T00:27:53;97427.31;;;6.15;62.31
9839;BME280;4958;48.150;11.506;2023-02-12T00:30:19;97429.88;;;6.15;61.87
9839;BME280;4958;48.150;11.506;2023-02-12T00:32:46;97431.47;;;6.16;62.07
9839;BME280;4958;48.150;11.506;2023-02-12T00:35:12;97434.66;;;6.20;61.73
9839;BME280;4958;48.150;11.506;2023-02-12T00:37:39;97428.91;;;6.16;62.64
9839;BME280;4958;48.150;11.506;2023-02-12T00:40:08;97429.16;;;6.13;62.46
9839;BME280;4958;48.150;11.506;2023-02-12T00:42:37;97432.44;;;6.15;62.60
9839;BME280;4958;48.150;11.506;2023-02-12T00:45:03;97422.06;;;6.17;62.15
9839;BME280;4958;48.150;11.506;2023-02-12T00:47:30;97426.25;;;6.18;62.22
9839;BME280;4958;48.150;11.506;2023-02-12T00:49:59;97424.63;;;6.17;62.68
9839;BME280;4958;48.150;11.506;2023-02-12T00:52:27;97424.63;;;6.17;62.54
9839;BME280;4958;48.150;11.506;2023-02-12T00:54:54;97426.25;;;6.18;62.07
9839;BME280;4958;48.150;11.506;2023-02-12T00:57:22;97428.81;;;6.18;62.42
9839;BME280;4958;48.150;11.506;2023-02-12T00:59:48;97441.94;;;6.13;62.49
9839;BME280;4958;48.150;11.506;2023-02-12T01:02:15;97437.53;;;6.15;62.41
9839;BME280;4958;48.150;11.506;2023-02-12T01:04:42;97440.88;;;6.16;62.69
9839;BME280;4958;48.150;11.506;2023-02-12T01:07:08;97434.25;;;6.13;62.46
9839;BME280;4958;48.150;11.506;2023-02-12T01:09:35;97430.28;;;6.09;62.88
9839;BME280;4958;48.150;11.506;2023-02-12T01:12:02;97427.63;;;6.11;62.78
9839;BME280;4958;48.150;11.506;2023-02-12T01:14:30;97432.53;;;6.14;62.84
9839;BME280;4958;48.150;11.506;2023-02-12T01:16:56;97424.75;;;6.15;62.81
9839;BME280;4958;48.150;11.506;2023-02-12T01:19:22;97432.19;;;6.18;62.35
9839;BME280;4958;48.150;11.506;2023-02-12T01:22:01;97433.84;;;6.19;62.64
9839;BME280;4958;48.150;11.506;2023-02-12T01:24:28;97419.41;;;6.18;62.73
9839;BME280;4958;48.150;11.506;2023-02-12T01:26:54;97416.03;;;6.18;62.86
9839;BME280;4958;48.150;11.506;2023-02-12T01:29:21;97429.63;;;6.18;62.77
9839;BME280;4958;48.150;11.506;2023-02-12T01:31:49;97426.25;;;6.18;63.11
9839;BME280;4958;48.150;11.506;2023-02-12T01:34:15;97435.47;;;6.20;62.91
9839;BME280;4958;48.150;11.506;2023-02-12T01:36:41;97443.25;;;6.19;62.75
9839;BME280;4958;48.150;11.506;2023-02-12T01:39:10;97435.47;;;6.20;63.07
9839;BME280;4958;48.150;11.506;2023-02-12T01:41:40;97438.94;;;6.19;63.30
9839;BME280;4958;48.150;11.506;2023-02-12T01:44:10;97441.41;;;6.21;63.16
9839;BME280;4958;48.150;11.506;2023-02-12T01:46:37;97446.63;;;6.19;63.18
9839;BME280;4958;48.150;11.506;2023-02-12T01:49:07;97446.53;;;6.21;62.83
9839;BME280;4958;48.150;11.506;2023-02-12T01:51:35;97441.84;;;6.15;63.60
9839;BME280;4958;48.150;11.506;2023-02-12T01:54:04;97440.88;;;6.16;63.13
9839;BME280;4958;48.150;11.506;2023-02-12T01:56:33;97437.75;;;6.12;63.09
9839;BME280;4958;48.150;11.506;2023-02-12T01:58:59;97445.09;;;6.04;63.98
9839;BME280;4958;48.150;11.506;2023-02-12T02:01:27;97440.81;;;6.05;63.56
9839;BME280;4958;48.150;11.506;2023-02-12T02:03:58;97427.81;;;6.08;63.31
9839;BME280;4958;48.150;11.506;2023-02-12T02:06:31;97428.94;;;6.04;63.77
9839;BME280;4958;48.150;11.506;2023-02-12T02:09:00;97441.41;;;6.08;63.75
9839;BME280;4958;48.150;11.506;2023-02-12T02:11:27;97434.78;;;6.06;63.81
9839;BME280;4958;48.150;11.506;2023-02-12T02:14:11;97435.69;;;6.05;63.65
9839;BME280;4958;48.150;11.506;2023-02-12T02:17:02;97436.50;;;6.05;63.43
9839;BME280;4958;48.150;11.506;2023-02-12T02:19:46;97433.53;;;5.99;63.57
9839;BME280;4958;48.150;11.506;2023-02-12T02:22:30;97430.06;;;6.00;64.04
9839;BME280;4958;48.150;11.506;2023-02-12T02:25:23;97424.84;;;6.01;63.91
9839;BME280;4958;48.150;11.506;2023-02-12T02:28:02;97429.03;;;6.02;63.44
9839;BME280;4958;48.150;11.506;2023-02-12T02:30:38;97433.53;;;5.99;63.17
9839;BME280;4958;48.150;11.506;2023-02-12T02:33:14;97425.38;;;5.94;63.13
9839;BME280;4958;48.150;11.506;2023-02-12T02:35:50;97426.41;;;5.91;63.18
9839;BME280;4958;48.150;11.506;2023-02-12T02:38:22;97419.00;;;5.86;63.26
9839;BME280;4958;48.150;11.506;2023-02-12T02:40:54;97423.13;;;5.89;63.16
9839;BME280;4958;48.150;11.506;2023-02-12T02:43:27;97419.81;;;5.87;63.27
9839;BME280;4958;48.150;11.506;2023-02-12T02:45:59;97423.38;;;5.84;63.22
9839;BME280;4958;48.150;11.506;2023-02-12T02:48:31;97421.66;;;5.85;63.61
9839;BME280;4958;48.150;11.506;2023-02-12T02:51:01;97413.97;;;5.85;63.58
9839;BME280;4958;48.150;11.506;2023-02-12T02:53:31;97416.44;;;5.86;63.26
9839;BME280;4958;48.150;11.506;2023-02-12T02:56:02;97414.28;;;5.80;63.79
9839;BME280;4958;48.150;11.506;2023-02-12T02:58:34;97409.25;;;5.79;63.50
9839;BME280;4958;48.150;11.506;2023-02-12T03:01:05;97403.22;;;5.80;63.83
9839;BME280;4958;48.150;11.506;2023-02-12T03:03:37;97410.19;;;5.78;63.54
9839;BME280;4958;48.150;11.506;2023-02-12T03:06:08;97414.91;;;5.71;64.26
9839;BME280;4958;48.150;11.506;2023-02-12T03:08:38;97409.59;;;5.74;63.73
9839;BME280;4958;48.150;11.506;2023-02-12T03:11:11;97422.88;;;5.79;63.93
9839;BME280;4958;48.150;11.506;2023-02-12T03:13:42;97434.53;;;5.83;63.83
9839;BME280;4958;48.150;11.506;2023-02-12T03:16:17;97426.97;;;5.82;63.69
9839;BME280;4958;48.150;11.506;2023-02-12T03:18:50;97425.94;;;5.84;63.79
9839;BME280;4958;48.150;11.506;2023-02-12T03:21:31;97429.13;;;5.88;63.97
9839;BME280;4958;48.150;11.506;2023-02-12T03:24:03;97424.84;;;5.88;63.81
9839;BME280;4958;48.150;11.506;2023-02-12T03:26:38;97439.06;;;5.93;63.79
9839;BME280;4958;48.150;11.506;2023-02-12T03:29:06;97438.97;;;5.94;63.81
9839;BME280;4958;48.150;11.506;2023-02-12T03:31:46;97444.28;;;5.91;63.97
9839;BME280;4958;48.150;11.506;2023-02-12T03:34:23;97438.16;;;5.94;63.92
9839;BME280;4958;48.150;11.506;2023-02-12T03:36:55;97444.19;;;5.93;64.04
9839;BME280;4958;48.150;11.506;2023-02-12T03:39:27;97441.63;;;5.93;63.70
9839;BME280;4958;48.150;11.506;2023-02-12T03:42:01;97441.44;;;5.96;63.84
9839;BME280;4958;48.150;11.506;2023-02-12T03:44:40;97433.03;;;5.94;64.38
9839;BME280;4958;48.150;11.506;2023-02-12T03:47:17;97439.19;;;5.91;64.74
9839;BME280;4958;48.150;11.506;2023-02-12T03:49:50;97440.00;;;5.92;64.59
9839;BME280;4958;48.150;11.506;2023-02-12T03:52:19;97432.31;;;5.92;64.53
9839;BME280;4958;48.150;11.506;2023-02-12T03:54:45;97434.97;;;5.90;64.57
9839;BME280;4958;48.150;11.506;2023-02-12T03:57:14;97440.09;;;5.90;64.77
9839;BME280;4958;48.150;11.506;2023-02-12T03:59:43;97441.84;;;5.89;65.32
9839;BME280;4958;48.150;11.506;2023-02-12T04:02:11;97435.97;;;5.87;65.22
9839;BME280;4958;48.150;11.506;2023-02-12T04:04:38;97445.31;;;5.88;65.08
9839;BME280;4958;48.150;11.506;2023-02-12T04:07:04;97451.97;;;5.91;64.90
9839;BME280;4958;48.150;11.506;2023-02-12T04:09:31;97444.38;;;5.89;65.25
9839;BME280;4958;48.150;11.506;2023-02-12T04:12:08;97454.63;;;5.89;65.72
9839;BME280;4958;48.150;11.506;2023-02-12T04:14:43;97460.34;;;5.93;65.50
9839;BME280;4958;48.150;11.506;2023-02-12T04:17:19;97458.72;;;5.92;65.40
9839;BME280;4958;48.150;11.506;2023-02-12T04:19:57;97458.72;;;5.92;65.39
9839;BME280;4958;48.150;11.506;2023-02-12T04:22:35;97455.22;;;5.93;65.91
9839;BME280;4958;48.150;11.506;2023-02-12T04:25:16;97460.34;;;5.93;65.68
9839;BME280;4958;48.150;11.506;2023-02-12T04:27:48;97460.44;;;5.92;66.49
9839;BME280;4958;48.150;11.506;2023-02-12T04:30:21;97467.41;;;5.89;66.49
9839;BME280;4958;48.150;11.506;2023-02-12T04:32:52;97469.13;;;5.89;66.41
9839;BME280;4958;48.150;11.506;2023-02-12T04:35:22;97464.09;;;5.87;66.43
9839;BME280;4958;48.150;11.506;2023-02-12T04:37:54;97469.03;;;5.91;66.15
9839;BME280;4958;48.150;11.506;2023-02-12T04:40:22;97469.75;;;5.93;66.12
9839;BME280;4958;48.150;11.506;2023-02-12T04:42:51;97468.03;;;5.93;66.14
9839;BME280;4958;48.150;11.506;2023-02-12T04:45:23;97466.28;;;5.94;65.83
9839;BME280;4958;48.150;11.506;2023-02-12T04:47:52;97476.41;;;5.95;66.19
9839;BME280;4958;48.150;11.506;2023-02-12T04:50:19;97479.06;;;5.94;66.38
9839;BME280;4958;48.150;11.506;2023-02-12T04:52:46;97473.84;;;5.95;66.44
9839;BME280;4958;48.150;11.506;2023-02-12T04:55:13;97475.78;;;5.92;66.21
9839;BME280;4958;48.150;11.506;2023-02-12T04:57:39;97479.06;;;5.94;66.34
9839;BME280;4958;48.150;11.506;2023-02-12T05:00:11;97473.03;;;5.95;66.50
9839;BME280;4958;48.150;11.506;2023-02-12T05:02:38;97468.75;;;5.95;66.88
9839;BME280;4958;48.150;11.506;2023-02-12T05:05:07;97473.72;;;5.97;66.72
9839;BME280;4958;48.150;11.506;2023-02-12T05:07:33;97471.97;;;5.97;67.27
9839;BME280;4958;48.150;11.506;2023-02-12T05:10:00;97470.56;;;5.93;67.57
9839;BME280;4958;48.150;11.506;2023-02-12T05:12:26;97473.22;;;5.92;67.80
9839;BME280;4958;48.150;11.506;2023-02-12T05:14:52;97480.81;;;5.93;67.56
9839;BME280;4958;48.150;11.506;2023-02-12T05:17:20;97486.00;;;5.92;67.27
9839;BME280;4958;48.150;11.506;2023-02-12T05:19:47;97483.34;;;5.93;67.48
9839;BME280;4958;48.150;11.506;2023-02-12T05:22:15;97491.13;;;5.92;67.54
9839;BME280;4958;48.150;11.506;2023-02-12T05:24:41;97490.22;;;5.93;67.70
9839;BME280;4958;48.150;11.506;2023-02-12T05:27:08;97484.28;;;5.92;67.56
9839;BME280;4958;48.150;11.506;2023-02-12T05:29:34;97490.94;;;5.95;67.51
9839;BME280;4958;48.150;11.506;2023-02-12T05:32:01;97492.56;;;5.96;67.31
9839;BME280;4958;48.150;11.506;2023-02-12T05:34:28;97495.13;;;5.96;67.42
9839;BME280;4958;48.150;11.506;2023-02-12T05:36:54;97508.81;;;5.95;67.47
9839;BME280;4958;48.150;11.506;2023-02-12T05:39:22;97506.97;;;5.97;67.28
9839;BME280;4958;48.150;11.506;2023-02-12T05:41:49;97511.16;;;5.98;66.70
9839;BME280;4958;48.150;11.506;2023-02-12T05:44:15;97502.66;;;5.97;67.07
9839;BME280;4958;48.150;11.506;2023-02-12T05:46:42;97507.19;;;5.94;67.08
9839;BME280;4958;48.150;11.506;2023-02-12T05:49:09;97501.16;;;5.95;67.10
9839;BME280;4958;48.150;11.506;2023-02-12T05:51:37;97504.72;;;5.92;67.08
9839;BME280;4958;48.150;11.506;2023-02-12T05:54:06;97509.22;;;5.88;67.29
9839;BME280;4958;48.150;11.506;2023-02-12T05:56:35;97506.91;;;6.11;88.73
9839;BME280;4958;48.150;11.506;2023-02-12T05:59:04;97501.47;;;6.28;73.00
9839;BME280;4958;48.150;11.506;2023-02-12T06:01:32;97499.94;;;6.26;69.23
9839;BME280;4958;48.150;11.506;2023-02-12T06:04:00;97507.19;;;6.19;68.30
9839;BME280;4958;48.150;11.506;2023-02-12T06:06:27;97503.31;;;6.13;68.50
9839;BME280;4958;48.150;11.506;2023-02-12T06:08:54;97506.78;;;6.12;68.23
9839;BME280;4958;48.150;11.506;2023-02-12T06:11:22;97502.16;;;6.05;69.20
9839;BME280;4958;48.150;11.506;2023-02-12T06:13:50;97515.16;;;6.02;69.67
9839;BME280;4958;48.150;11.506;2023-02-12T06:16:18;97514.34;;;6.01;69.48
9839;BME280;4958;48.150;11.506;2023-02-12T06:18:45;97507.50;;;6.02;69.97
9839;BME280;4958;48.150;11.506;2023-02-12T06:21:11;97510.56;;;5.94;75.24
9839;BME280;4958;48.150;11.506;2023-02-12T06:23:38;97518.53;;;5.89;75.69
9839;BME280;4958;48.150;11.506;2023-02-12T06:26:04;97518.78;;;5.85;75.84
9839;BME280;4958;48.150;11.506;2023-02-12T06:28:30;97520.81;;;5.80;76.81
9839;BME280;4958;48.150;11.506;2023-02-12T06:30:58;97526.75;;;5.80;76.79
9839;BME280;4958;48.150;11.506;2023-02-12T06:33:25;97532.69;;;5.81;77.61
9839;BME280;4958;48.150;11.506;2023-02-12T06:35:51;97529.50;;;5.77;77.94
9839;BME280;4958;48.150;11.506;2023-02-12T06:38:18;97534.50;;;5.79;78.78
9839;BME280;4958;48.150;11.506;2023-02-12T06:40:44;97533.69;;;5.78;78.83
9839;BME280;4958;48.150;11.506;2023-02-12T06:43:10;97535.22;;;5.81;78.62
9839;BME280;4958;48.150;11.506;2023-02-12T06:45:37;97533.69;;;5.78;79.39
9839;BME280;4958;48.150;11.506;2023-02-12T06:48:05;97537.88;;;5.79;80.34
9839;BME280;4958;48.150;11.506;2023-02-12T06:50:31;97543.06;;;5.65;83.84
9839;BME280;4958;48.150;11.506;2023-02-12T06:52:58;97550.09;;;5.62;82.40
9839;BME280;4958;48.150;11.506;2023-02-12T06:55:24;97545.72;;;5.64;82.82
9839;BME280;4958;48.150;11.506;2023-02-12T06:57:51;97543.06;;;5.65;82.32
9839;BME280;4958;48.150;11.506;2023-02-12T07:00:18;97540.59;;;5.64;82.86
9839;BME280;4958;48.150;11.506;2023-02-12T07:02:51;97541.44;;;5.64;83.19
9839;BME280;4958;48.150;11.506;2023-02-12T07:05:19;97538.78;;;5.66;84.32
9839;BME280;4958;48.150;11.506;2023-02-12T07:07:48;97541.34;;;5.66;84.16
9839;BME280;4958;48.150;11.506;2023-02-12T07:10:15;97548.09;;;5.67;85.08
9839;BME280;4958;48.150;11.506;2023-02-12T07:12:41;97544.53;;;5.69;84.52
9839;BME280;4958;48.150;11.506;2023-02-12T07:15:08;97539.94;;;5.74;84.23
9839;BME280;4958;48.150;11.506;2023-02-12T07:17:37;97537.97;;;5.78;84.17
9839;BME280;4958;48.150;11.506;2023-02-12T07:20:05;97543.91;;;5.78;84.58
9839;BME280;4958;48.150;11.506;2023-02-12T07:22:35;97543.09;;;5.78;85.00
9839;BME280;4958;48.150;11.506;2023-02-12T07:25:02;97547.38;;;5.77;85.02
9839;BME280;4958;48.150;11.506;2023-02-12T07:27:28;97540.34;;;5.81;84.77
9839;BME280;4958;48.150;11.506;2023-02-12T07:29:55;97543.53;;;5.84;84.17
9839;BME280;4958;48.150;11.506;2023-02-12T07:32:21;97536.06;;;5.81;85.07
9839;BME280;4958;48.150;11.506;2023-02-12T07:34:48;97532.47;;;5.84;84.50
9839;BME280;4958;48.150;11.506;2023-02-12T07:37:14;97534.69;;;5.90;83.72
9839;BME280;4958;48.150;11.506;2023-02-12T07:39:42;97537.03;;;5.93;83.82
9839;BME280;4958;48.150;11.506;2023-02-12T07:42:08;97533.13;;;5.87;84.53
9839;BME280;4958;48.150;11.506;2023-02-12T07:44:38;97531.66;;;5.83;84.94
9839;BME280;4958;48.150;11.506;2023-02-12T07:47:04;97529.81;;;5.73;85.90
9839;BME280;4958;48.150;11.506;2023-02-12T07:49:31;97527.66;;;5.79;86.00
9839;BME280;4958;48.150;11.506;2023-02-12T07:51:57;97523.63;;;5.89;85.53
9839;BME280;4958;48.150;11.506;2023-02-12T07:54:24;97516.41;;;5.96;85.06
9839;BME280;4958;48.150;11.506;2023-02-12T07:56:52;97520.88;;;6.05;83.59
9839;BME280;4958;48.150;11.506;2023-02-12T07:59:18;97524.59;;;6.14;83.13
9839;BME280;4958;48.150;11.506;2023-02-12T08:01:47;97524.06;;;6.21;82.36
9839;BME280;4958;48.150;11.506;2023-02-12T08:04:16;97523.56;;;6.29;82.52
9839;BME280;4958;48.150;11.506;2023-02-12T08:06:45;97533.38;;;6.35;81.68
9839;BME280;4958;48.150;11.506;2023-02-12T08:09:15;97530.63;;;6.38;81.67
9839;BME280;4958;48.150;11.506;2023-02-12T08:11:45;97525.31;;;6.29;81.63
9839;BME280;4958;48.150;11.506;2023-02-12T08:14:16;97532.88;;;6.17;84.04
9839;BME280;4958;48.150;11.506;2023-02-12T08:16:45;97534.00;;;6.13;84.17
9839;BME280;4958;48.150;11.506;2023-02-12T08:19:12;97533.78;;;6.16;83.20
9839;BME280;4958;48.150;11.506;2023-02-12T08:21:39;97526.09;;;6.16;83.23
9839;BME280;4958;48.150;11.506;2023-02-12T08:24:06;97527.97;;;6.14;83.69
9839;BME280;4958;48.150;11.506;2023-02-12T08:26:34;97532.03;;;6.17;83.46
9839;BME280;4958;48.150;11.506;2023-02-12T08:29:03;97534.59;;;6.17;83.35
9839;BME280;4958;48.150;11.506;2023-02-12T08:31:33;97525.28;;;6.03;85.03
9839;BME280;4958;48.150;11.506;2023-02-12T08:34:00;97535.31;;;6.06;84.38
9839;BME280;4958;48.150;11.506;2023-02-12T08:36:28;97530.22;;;6.06;84.50
9839;BME280;4958;48.150;11.506;2023-02-12T08:38:57;97530.41;;;6.03;84.47
9839;BME280;4958;48.150;11.506;2023-02-12T08:41:25;97527.25;;;6.12;83.75
9839;BME280;4958;48.150;11.506;2023-02-12T08:43:53;97526.09;;;6.16;83.86
9839;BME280;4958;48.150;11.506;2023-02-12T08:46:22;97525.72;;;6.22;83.75
9839;BME280;4958;48.150;11.506;2023-02-12T08:48:53;97530.34;;;6.30;83.48
9839;BME280;4958;48.150;11.506;2023-02-12T08:51:22;97529.22;;;6.34;83.37
9839;BME280;4958;48.150;11.506;2023-02-12T08:53:52;97528.25;;;6.35;83.13
9839;BME280;4958;48.150;11.506;2023-02-12T08:56:19;97526.03;;;6.31;84.95
9839;BME280;4958;48.150;11.506;2023-02-12T08:58:46;97528.06;;;6.38;84.54
9839;BME280;4958;48.150;11.506;2023-02-12T09:01:14;97523.16;;;6.48;83.17
9839;BME280;4958;48.150;11.506;2023-02-12T09:03:42;97524.25;;;6.56;83.14
9839;BME280;4958;48.150;11.506;2023-02-12T09:06:10;97518.63;;;6.64;82.63
9839;BME280;4958;48.150;11.506;2023-02-12T09:08:38;97526.72;;;6.71;82.41
9839;BME280;4958;48.150;11.506;2023-02-12T09:11:05;97519.44;;;6.77;81.98
9839;BME280;4958;48.150;11.506;2023-02-12T09:13:32;97528.78;;;6.66;84.31
9839;BME280;4958;48.150;11.506;2023-02-12T09:15:59;97525.47;;;6.76;82.86
9839;BME280;4958;48.150;11.506;2023-02-12T09:18:33;97528.22;;;6.86;82.59
9839;BME280;4958;48.150;11.506;2023-02-12T09:21:01;97526.88;;;6.93;82.50
9839;BME280;4958;48.150;11.506;2023-02-12T09:23:29;97526.88;;;6.93;82.65
9839;BME280;4958;48.150;11.506;2023-02-12T09:25:56;97534.44;;;6.94;82.47
9839;BME280;4958;48.150;11.506;2023-02-12T09:28:23;97532.59;;;6.97;82.36
9839;BME280;4958;48.150;11.506;2023-02-12T09:30:49;97532.00;;;6.93;82.57
9839;BME280;4958;48.150;11.506;2023-02-12T09:33:16;97533.41;;;6.97;82.81
9839;BME280;4958;48.150;11.506;2023-02-12T09:35:43;97535.34;;;7.06;81.98
9839;BME280;4958;48.150;11.506;2023-02-12T09:38:09;97532.06;;;7.04;84.91
9839;BME280;4958;48.150;11.506;2023-02-12T09:40:43;97535.78;;;7.00;88.79
9839;BME280;4958;48.150;11.506;2023-02-12T09:43:16;97533.00;;;7.03;85.49
9839;BME280;4958;48.150;11.506;2023-02-12T09:45:49;97533.00;;;7.03;86.15
9839;BME280;4958;48.150;11.506;2023-02-12T09:48:31;97529.31;;;7.07;84.79
9839;BME280;4958;48.150;11.506;2023-02-12T09:51:04;97529.53;;;7.04;85.18
9839;BME280;4958;48.150;11.506;2023-02-12T09:53:34;97533.56;;;7.19;83.93
9839;BME280;4958;48.150;11.506;2023-02-12T09:56:07;97529.44;;;7.30;83.56
9839;BME280;4958;48.150;11.506;2023-02-12T09:58:41;97533.84;;;7.27;83.75
9839;BME280;4958;48.150;11.506;2023-02-12T10:01:10;97527.81;;;7.28;83.72
9839;BME280;4958;48.150;11.506;2023-02-12T10:03:38;97532.63;;;7.20;83.90
9839;BME280;4958;48.150;11.506;2023-02-12T10:06:16;97535.03;;;7.11;84.25
9839;BME280;4958;48.150;11.506;2023-02-12T10:09:05;97531.22;;;7.16;84.10
9839;BME280;4958;48.150;11.506;2023-02-12T10:11:50;97530.94;;;7.32;83.26
9839;BME280;4958;48.150;11.506;2023-02-12T10:14:33;97535.47;;;7.76;96.33
9839;BME280;4958;48.150;11.506;2023-02-12T10:17:16;97531.91;;;8.25;93.59
9839;BME280;4958;48.150;11.506;2023-02-12T10:20:00;97536.94;;;8.38;80.53
9839;BME280;4958;48.150;11.506;2023-02-12T10:22:37;97536.03;;;8.39;77.87
9839;BME280;4958;48.150;11.506;2023-02-12T10:25:18;97533.97;;;8.20;76.65
9839;BME280;4958;48.150;11.506;2023-02-12T10:27:53;97525.84;;;8.26;77.33
9839;BME280;4958;48.150;11.506;2023-02-12T10:30:22;97529.88;;;8.28;76.98
9839;BME280;4958;48.150;11.506;2023-02-12T10:32:52;97530.78;;;8.40;76.60
9839;BME280;4958;48.150;11.506;2023-02-12T10:35:20;97534.88;;;8.54;76.17
9839;BME280;4958;48.150;11.506;2023-02-12T10:37:51;97531.63;;;8.63;74.95
9839;BME280;4958;48.150;11.506;2023-02-12T10:40:23;97528.00;;;8.77;74.42
9839;BME280;4958;48.150;11.506;2023-02-12T10:42:53;97525.88;;;8.82;73.67
9839;BME280;4958;48.150;11.506;2023-02-12T10:45:24;97519.22;;;8.90;73.52
9839;BME280;4958;48.150;11.506;2023-02-12T10:48:04;97519.91;;;8.92;72.39
9839;BME280;4958;48.150;11.506;2023-02-12T10:50:41;97522.59;;;9.02;72.51
9839;BME280;4958;48.150;11.506;2023-02-12T10:53:20;97522.22;;;9.07;72.31
9839;BME280;4958;48.150;11.506;2023-02-12T10:55:47;97527.44;;;9.27;71.08
9839;BME280;4958;48.150;11.506;2023-02-12T10:58:22;97521.59;;;9.37;69.76
9839;BME280;4958;48.150;11.506;2023-02-12T11:00:56;97519.34;;;9.43;70.23
9839;BME280;4958;48.150;11.506;2023-02-12T11:03:27;97520.84;;;9.46;70.25
9839;BME280;4958;48.150;11.506;2023-02-12T11:06:10;97514.16;;;9.54;69.60
9839;BME280;4958;48.150;11.506;2023-02-12T11:08:37;97521.53;;;9.59;69.20
9839;BME280;4958;48.150;11.506;2023-02-12T11:11:08;97515.16;;;9.74;69.08
9839;BME280;4958;48.150;11.506;2023-02-12T11:13:41;97513.91;;;10.10;68.28
9839;BME280;4958;48.150;11.506;2023-02-12T11:16:10;97513.69;;;10.34;67.16
9839;BME280;4958;48.150;11.506;2023-02-12T11:18:37;97511.59;;;10.28;66.17
9839;BME280;4958;48.150;11.506;2023-02-12T11:21:05;97510.88;;;10.05;66.02
9839;BME280;4958;48.150;11.506;2023-02-12T11:23:34;97507.59;;;9.82;66.86
9839;BME280;4958;48.150;11.506;2023-02-12T11:26:05;97506.28;;;9.67;67.50
9839;BME280;4958;48.150;11.506;2023-02-12T11:28:33;97507.84;;;9.58;67.50
9839;BME280;4958;48.150;11.506;2023-02-12T11:31:03;97504.63;;;9.66;67.85
9839;BME280;4958;48.150;11.506;2023-02-12T11:33:42;97502.16;;;9.44;66.92
9839;BME280;4958;48.150;11.506;2023-02-12T11:36:14;97503.47;;;9.38;67.59
9839;BME280;4958;48.150;11.506;2023-02-12T11:38:48;97500.69;;;9.30;67.36
9839;BME280;4958;48.150;11.506;2023-02-12T11:41:23;97504.78;;;9.32;67.66
9839;BME280;4958;48.150;11.506;2023-02-12T11:43:53;97497.06;;;9.32;67.11
9839;BME280;4958;48.150;11.506;2023-02-12T11:46:24;97504.31;;;9.27;67.67
9839;BME280;4958;48.150;11.506;2023-02-12T11:48:53;97494.72;;;9.29;67.63
9839;BME280;4958;48.150;11.506;2023-02-12T11:51:23;97499.22;;;9.48;67.55
9839;BME280;4958;48.150;11.506;2023-02-12T11:53:52;97495.03;;;10.00;66.77
9839;BME280;4958;48.150;11.506;2023-02-12T11:56:23;97491.78;;;10.49;65.43
9839;BME280;4958;48.150;11.506;2023-02-12T11:58:50;97488.66;;;10.46;63.88
9839;BME280;4958;48.150;11.506;2023-02-12T12:01:21;97485.16;;;10.26;63.30
9839;BME280;4958;48.150;11.506;2023-02-12T12:03:57;97487.94;;;10.34;63.63
9839;BME280;4958;48.150;11.506;2023-02-12T12:06:33;97477.84;;;10.52;63.01
9839;BME280;4958;48.150;11.506;2023-02-12T12:09:04;97479.28;;;10.75;62.80
9839;BME280;4958;48.150;11.506;2023-02-12T12:11:37;97463.88;;;10.94;61.94
9839;BME280;4958;48.150;11.506;2023-02-12T12:14:11;97474.75;;;11.17;61.33
9839;BME280;4958;48.150;11.506;2023-02-12T12:16:49;97469.22;;;11.31;60.37
9839;BME280;4958;48.150;11.506;2023-02-12T12:19:40;97462.03;;;11.16;59.44
9839;BME280;4958;48.150;11.506;2023-02-12T12:22:41;97474.72;;;10.98;60.61
9839;BME280;4958;48.150;11.506;2023-02-12T12:25:19;97462.16;;;11.24;60.40
9839;BME280;4958;48.150;11.506;2023-02-12T12:27:55;97460.66;;;11.31;59.96
9839;BME280;4958;48.150;11.506;2023-02-12T12:30:47;97455.78;;;11.47;59.28
9839;BME280;4958;48.150;11.506;2023-02-12T12:33:36;97458.47;;;11.74;59.00
9839;BME280;4958;48.150;11.506;2023-02-12T12:39:15;97450.34;;;11.89;57.87
9839;BME280;4958;48.150;11.506;2023-02-12T12:41:53;97449.91;;;11.74;57.79
9839;BME280;4958;48.150;11.506;2023-02-12T12:44:32;97449.53;;;11.69;57.78
9839;BME280;4958;48.150;11.506;2023-02-12T12:47:16;97441.41;;;11.35;59.05
9839;BME280;4958;48.150;11.506;2023-02-12T12:49:53;97444.13;;;11.53;58.91
9839;BME280;4958;48.150;11.506;2023-02-12T12:52:40;97448.47;;;11.52;58.53
9839;BME280;4958;48.150;11.506;2023-02-12T12:55:35;97448.31;;;11.34;58.64
9839;BME280;4958;48.150;11.506;2023-02-12T12:58:13;97448.84;;;11.38;59.21
9839;BME280;4958;48.150;11.506;2023-02-12T13:00:55;97441.25;;;11.56;58.98
9839;BME280;4958;48.150;11.506;2023-02-12T13:03:43;97442.72;;;11.97;58.78
9839;BME280;4958;48.150;11.506;2023-02-12T13:09:38;97439.75;;;11.72;58.72
9839;BME280;4958;48.150;11.506;2023-02-12T13:12:26;97440.97;;;11.88;58.49
9839;BME280;4958;48.150;11.506;2023-02-12T13:14:59;97433.72;;;12.10;58.25
9839;BME280;4958;48.150;11.506;2023-02-12T13:17:33;97440.34;;;12.13;57.76
9839;BME280;4958;48.150;11.506;2023-02-12T13:20:09;97436.97;;;12.13;57.61
9839;BME280;4958;48.150;11.506;2023-02-12T13:22:47;97436.53;;;12.27;57.04
9839;BME280;4958;48.150;11.506;2023-02-12T13:25:22;97439.34;;;12.33;56.93
9839;BME280;4958;48.150;11.506;2023-02-12T13:27:50;97429.38;;;12.48;56.43
9839;BME280;4958;48.150;11.506;2023-02-12T13:30:20;97436.47;;;12.46;56.06
9839;BME280;4958;48.150;11.506;2023-02-12T13:32:53;97435.84;;;12.25;56.68
9839;BME280;4958;48.150;11.506;2023-02-12T13:35:22;97434.72;;;11.90;57.34
9839;BME280;4958;48.150;11.506;2023-02-12T13:37:53;97443.38;;;12.08;57.37
9839;BME280;4958;48.150;11.506;2023-02-12T13:40:21;97431.19;;;12.38;56.32
9839;BME280;4958;48.150;11.506;2023-02-12T13:42:52;97429.72;;;12.63;55.41
9839;BME280;4958;48.150;11.506;2023-02-12T13:45:29;97436.19;;;12.49;54.98